createdAt,value
2019-05-30T00:00:17.033Z,4.70
2019-05-30T00:02:40.131Z,5.20
2019-05-30T00:05:08.985Z,4.15
2019-05-30T00:07:37.593Z,2.75
2019-05-30T00:10:07.359Z,3.12
2019-05-30T00:12:36.166Z,3.02
2019-05-30T00:15:07.335Z,3.58
2019-05-30T00:17:36.024Z,2.20
2019-05-30T00:20:06.286Z,2.42
2019-05-30T00:22:35.039Z,2.72
2019-05-30T00:25:06.359Z,2.30
2019-05-30T00:27:35.204Z,3.92
2019-05-30T00:30:05.353Z,3.67
2019-05-30T00:32:34.141Z,4.28
2019-05-30T00:35:03.798Z,2.47
2019-05-30T00:37:32.614Z,1.65
2019-05-30T00:40:02.122Z,3.25
2019-05-30T00:42:30.854Z,4.10
2019-05-30T00:44:59.989Z,3.47
2019-05-30T00:47:28.829Z,2.83
2019-05-30T00:49:58.157Z,1.57
2019-05-30T00:52:26.864Z,3.77
2019-05-30T00:54:56.450Z,3.80
2019-05-30T00:57:27.121Z,1.45
2019-05-30T00:59:56.555Z,3.25
2019-05-30T01:02:25.422Z,4.12
2019-05-30T01:04:54.073Z,2.77
2019-05-30T01:07:22.745Z,2.55
2019-05-30T01:09:51.620Z,4.20
2019-05-30T01:12:20.293Z,3.00
2019-05-30T01:14:49.105Z,4.70
2019-05-30T01:17:17.732Z,3.17
2019-05-30T01:19:46.402Z,1.85
2019-05-30T01:22:15.091Z,6.30
2019-05-30T01:24:43.723Z,3.00
2019-05-30T01:27:12.466Z,2.30
2019-05-30T01:29:41.166Z,3.62
2019-05-30T01:32:28.757Z,3.17
2019-05-30T01:34:59.767Z,3.02
2019-05-30T01:37:28.843Z,2.75
2019-05-30T01:39:57.733Z,2.83
2019-05-30T01:42:26.590Z,4.30
2019-05-30T01:44:55.329Z,3.17
2019-05-30T01:47:24.020Z,3.85
2019-05-30T01:49:52.845Z,3.27
2019-05-30T01:52:21.475Z,2.77
2019-05-30T01:54:50.342Z,3.80
2019-05-30T01:57:18.961Z,2.90
2019-05-30T01:59:47.679Z,4.25
2019-05-30T02:02:16.474Z,4.10
2019-05-30T02:04:45.254Z,2.33
2019-05-30T02:07:13.986Z,4.15
2019-05-30T02:09:42.686Z,4.20
2019-05-30T02:12:11.287Z,5.58
2019-05-30T02:14:40.015Z,3.20
2019-05-30T02:17:09.825Z,3.50
2019-05-30T02:19:38.842Z,3.67
2019-05-30T02:22:07.963Z,4.85
2019-05-30T02:24:36.795Z,4.87
2019-05-30T02:27:06.340Z,5.83
2019-05-30T02:29:35.026Z,3.85
2019-05-30T02:32:05.008Z,4.72
2019-05-30T02:34:33.929Z,4.62
2019-05-30T02:37:03.317Z,5.60
2019-05-30T02:39:32.878Z,4.65
2019-05-30T02:42:03.073Z,5.30
2019-05-30T02:44:31.947Z,5.10
2019-05-30T02:47:01.442Z,6.12
2019-05-30T02:49:30.742Z,4.80
2019-05-30T02:51:59.372Z,5.75
2019-05-30T02:54:28.270Z,4.45
2019-05-30T02:56:56.956Z,5.35
2019-05-30T02:59:25.632Z,9.03
2019-05-30T03:02:01.952Z,4.60
2019-05-30T03:04:24.818Z,6.55
2019-05-30T03:06:53.496Z,4.65
2019-05-30T03:09:22.450Z,4.90
2019-05-30T03:11:51.989Z,4.25
2019-05-30T03:14:20.832Z,7.70
2019-05-30T03:16:49.466Z,9.23
2019-05-30T03:19:18.585Z,4.70
2019-05-30T03:21:47.311Z,9.10
2019-05-30T03:24:16.153Z,5.95
2019-05-30T03:26:44.848Z,6.65
2019-05-30T03:29:14.328Z,8.60
2019-05-30T03:31:44.919Z,6.58
2019-05-30T03:34:26.135Z,7.58
2019-05-30T03:36:44.611Z,7.05
2019-05-30T03:39:15.462Z,6.70
2019-05-30T03:41:43.778Z,7.78
2019-05-30T03:44:13.943Z,8.58
2019-05-30T03:46:45.943Z,9.30
2019-05-30T03:49:17.609Z,7.22
2019-05-30T03:51:48.446Z,7.78
2019-05-30T03:54:18.502Z,7.47
2019-05-30T03:56:56.100Z,9.70
2019-05-30T03:59:37.536Z,9.83
2019-05-30T04:02:18.955Z,10.63
2019-05-30T04:04:57.080Z,11.70
2019-05-30T04:07:28.642Z,10.23
2019-05-30T04:09:58.512Z,7.05
2019-05-30T04:12:32.878Z,12.45
2019-05-30T04:15:08.364Z,11.65
2019-05-30T04:17:38.012Z,9.68
2019-05-30T04:20:08.917Z,12.93
2019-05-30T04:22:37.541Z,10.32
2019-05-30T04:25:08.566Z,10.60
2019-05-30T04:27:37.348Z,12.43
2019-05-30T04:30:10.019Z,11.50
2019-05-30T04:32:38.786Z,12.65
2019-05-30T04:35:08.061Z,8.10
2019-05-30T04:37:36.894Z,12.28
2019-05-30T04:40:11.095Z,12.23
2019-05-30T04:42:39.718Z,10.75
2019-05-30T04:45:09.641Z,13.25
2019-05-30T04:47:38.738Z,9.93
2019-05-30T04:50:10.143Z,12.82
2019-05-30T04:52:38.977Z,9.63
2019-05-30T04:55:10.541Z,10.00
2019-05-30T04:57:39.114Z,13.08
2019-05-30T05:00:09.031Z,10.43
2019-05-30T05:02:38.212Z,12.05
2019-05-30T05:05:07.755Z,13.38
2019-05-30T05:07:36.539Z,16.55
2019-05-30T05:10:08.531Z,15.35
2019-05-30T05:12:37.258Z,11.68
2019-05-30T05:15:07.244Z,15.05
2019-05-30T05:17:35.943Z,14.45
2019-05-30T05:20:07.035Z,15.45
2019-05-30T05:22:35.636Z,15.63
2019-05-30T05:25:09.640Z,18.60
2019-05-30T05:27:38.827Z,16.20
2019-05-30T05:30:10.140Z,14.03
2019-05-30T05:32:38.983Z,17.37
2019-05-30T05:35:08.728Z,20.23
2019-05-30T05:37:37.533Z,23.90
2019-05-30T05:40:06.585Z,17.42
2019-05-30T05:42:35.353Z,17.10
2019-05-30T05:45:06.780Z,15.53
2019-05-30T05:47:35.485Z,19.25
2019-05-30T05:50:05.399Z,17.48
2019-05-30T05:52:34.141Z,18.30
2019-05-30T05:55:02.980Z,19.85
2019-05-30T05:57:31.725Z,20.27
2019-05-30T06:00:00.576Z,20.57
2019-05-30T06:02:29.273Z,20.82
2019-05-30T06:04:58.073Z,19.95
2019-05-30T06:07:26.754Z,19.45
2019-05-30T06:09:55.389Z,14.18
2019-05-30T06:12:24.182Z,18.92
2019-05-30T06:14:52.902Z,19.85
2019-05-30T06:17:21.541Z,18.12
2019-05-30T06:19:50.221Z,19.87
2019-05-30T06:22:19.294Z,22.75
2019-05-30T06:24:48.038Z,16.23
2019-05-30T06:27:54.893Z,17.60
2019-05-30T06:30:24.465Z,17.27
2019-05-30T06:32:54.297Z,21.10
2019-05-30T06:35:23.041Z,17.82
2019-05-30T06:37:51.807Z,19.60
2019-05-30T06:40:21.363Z,22.55
2019-05-30T06:42:50.167Z,18.12
2019-05-30T06:45:20.910Z,17.02
2019-05-30T06:47:49.527Z,17.12
2019-05-30T06:50:18.475Z,18.52
2019-05-30T06:52:49.548Z,18.12
2019-05-30T06:55:18.243Z,17.85
2019-05-30T06:57:46.948Z,19.48
2019-05-30T07:00:16.171Z,20.08
2019-05-30T07:02:44.970Z,16.45
2019-05-30T07:05:15.461Z,18.57
2019-05-30T07:07:44.716Z,18.12
2019-05-30T07:10:13.992Z,19.02
2019-05-30T07:12:51.122Z,19.60
2019-05-30T07:15:20.075Z,16.67
2019-05-30T07:17:48.762Z,14.15
2019-05-30T07:20:17.974Z,21.07
2019-05-30T07:22:46.587Z,17.30
2019-05-30T07:25:15.487Z,15.72
2019-05-30T07:27:44.245Z,14.30
2019-05-30T07:30:13.819Z,15.83
2019-05-30T07:32:42.997Z,17.95
2019-05-30T07:35:11.749Z,20.77
2019-05-30T07:37:40.459Z,16.85
2019-05-30T07:40:10.815Z,14.10
2019-05-30T07:42:39.579Z,13.65
2019-05-30T07:45:10.591Z,14.60
2019-05-30T07:47:39.331Z,15.28
2019-05-30T07:50:09.395Z,12.80
2019-05-30T07:52:39.032Z,16.45
2019-05-30T07:55:09.424Z,10.38
2019-05-30T07:57:41.199Z,11.15
2019-05-30T08:00:11.803Z,10.45
2019-05-30T08:02:40.565Z,9.00
2019-05-30T08:05:23.611Z,13.10
2019-05-30T08:07:40.875Z,9.20
2019-05-30T08:10:11.740Z,9.85
2019-05-30T08:12:40.521Z,14.85
2019-05-30T08:15:10.775Z,16.80
2019-05-30T08:17:39.768Z,12.07
2019-05-30T08:20:09.735Z,10.40
2019-05-30T08:22:38.490Z,14.83
2019-05-30T08:25:07.937Z,11.08
2019-05-30T08:27:36.626Z,12.85
2019-05-30T08:30:10.173Z,10.50
2019-05-30T08:32:39.036Z,8.63
2019-05-30T08:35:08.525Z,9.23
2019-05-30T08:37:37.486Z,9.35
2019-05-30T08:40:08.430Z,13.93
2019-05-30T08:42:38.416Z,11.93
2019-05-30T08:45:09.828Z,9.90
2019-05-30T08:47:40.646Z,10.35
2019-05-30T08:50:10.672Z,9.43
2019-05-30T08:52:40.707Z,10.18
2019-05-30T08:55:10.444Z,11.40
2019-05-30T08:57:39.072Z,11.22
2019-05-30T09:00:10.878Z,10.30
2019-05-30T09:02:40.765Z,14.93
2019-05-30T09:05:10.602Z,11.90
2019-05-30T09:07:40.260Z,13.62
2019-05-30T09:10:10.403Z,12.33
2019-05-30T09:12:42.113Z,12.85
2019-05-30T09:15:14.610Z,12.70
2019-05-30T09:17:44.793Z,13.32
2019-05-30T09:20:15.184Z,11.95
2019-05-30T09:22:43.953Z,12.80
2019-05-30T09:25:13.406Z,13.43
2019-05-30T09:27:42.891Z,15.20
2019-05-30T09:30:14.639Z,12.30
2019-05-30T09:32:45.017Z,12.68
2019-05-30T09:35:16.107Z,13.05
2019-05-30T09:37:45.902Z,11.53
2019-05-30T09:40:17.084Z,14.25
2019-05-30T09:42:46.901Z,13.85
2019-05-30T09:45:18.817Z,15.10
2019-05-30T09:47:49.380Z,13.03
2019-05-30T09:50:19.966Z,15.48
2019-05-30T09:52:49.366Z,13.78
2019-05-30T09:55:20.995Z,14.58
2019-05-30T09:57:49.806Z,17.60
2019-05-30T10:00:20.560Z,14.85
2019-05-30T10:02:50.514Z,16.90
2019-05-30T10:05:23.314Z,14.30
2019-05-30T10:07:50.823Z,15.03
2019-05-30T10:10:19.964Z,20.25
2019-05-30T10:12:50.220Z,14.10
2019-05-30T10:15:19.701Z,16.73
2019-05-30T10:17:49.736Z,12.68
2019-05-30T10:20:25.606Z,15.85
2019-05-30T10:22:54.286Z,12.70
2019-05-30T10:25:23.548Z,16.30
2019-05-30T10:27:54.414Z,15.05
2019-05-30T10:30:23.558Z,16.23
2019-05-30T10:32:53.635Z,13.62
2019-05-30T10:35:23.165Z,14.75
2019-05-30T10:37:52.816Z,13.00
2019-05-30T10:40:21.851Z,14.45
2019-05-30T10:42:51.283Z,15.15
2019-05-30T10:45:21.802Z,11.95
2019-05-30T10:47:51.368Z,12.98
2019-05-30T10:50:20.977Z,12.00
2019-05-30T10:52:49.739Z,13.53
2019-05-30T10:55:19.481Z,12.63
2019-05-30T10:57:48.637Z,15.85
2019-05-30T11:00:20.091Z,19.67
2019-05-30T11:02:49.359Z,12.13
2019-05-30T11:05:19.645Z,12.45
2019-05-30T11:08:05.982Z,15.38
2019-05-30T11:10:36.227Z,13.35
2019-05-30T11:13:07.533Z,17.10
2019-05-30T11:15:36.280Z,13.30
2019-05-30T11:18:05.381Z,13.22
2019-05-30T11:20:34.123Z,15.00
2019-05-30T11:23:02.737Z,15.83
2019-05-30T11:25:32.911Z,14.05
2019-05-30T11:28:01.611Z,12.82
2019-05-30T11:30:30.692Z,15.48
2019-05-30T11:32:59.591Z,16.45
2019-05-30T11:35:28.470Z,14.65
2019-05-30T11:37:57.304Z,13.22
2019-05-30T11:40:26.266Z,13.75
2019-05-30T11:42:55.495Z,15.05
2019-05-30T11:45:24.612Z,14.45
2019-05-30T11:47:53.853Z,17.02
2019-05-30T11:50:22.703Z,14.33
2019-05-30T11:52:51.698Z,13.62
2019-05-30T11:55:20.598Z,13.80
2019-05-30T11:57:49.953Z,15.32
2019-05-30T12:00:20.594Z,14.50
2019-05-30T12:02:50.209Z,16.57
2019-05-30T12:05:19.654Z,15.25
2019-05-30T12:07:48.332Z,12.80
2019-05-30T12:10:18.581Z,14.78
2019-05-30T12:12:47.272Z,14.45
2019-05-30T12:15:16.033Z,13.80
2019-05-30T12:17:44.724Z,14.87
2019-05-30T12:20:13.701Z,15.90
2019-05-30T12:22:42.411Z,13.40
2019-05-30T12:25:11.356Z,20.10
2019-05-30T12:27:40.149Z,13.80
2019-05-30T12:30:09.706Z,14.13
2019-05-30T12:32:38.488Z,13.75
2019-05-30T12:35:08.132Z,15.20
2019-05-30T12:37:53.232Z,13.88
2019-05-30T12:40:08.060Z,13.22
2019-05-30T12:42:36.736Z,12.65
2019-05-30T12:45:08.280Z,16.15
2019-05-30T12:47:37.025Z,12.73
2019-05-30T12:50:08.067Z,12.30
2019-05-30T12:52:37.830Z,13.88
2019-05-30T12:55:08.395Z,13.45
2019-05-30T12:57:37.141Z,16.37
2019-05-30T13:00:18.413Z,15.50
2019-05-30T13:02:41.632Z,14.55
2019-05-30T13:05:10.808Z,14.58
2019-05-30T13:07:39.555Z,11.08
2019-05-30T13:10:10.052Z,13.00
2019-05-30T13:12:38.797Z,11.73
2019-05-30T13:15:08.545Z,11.20
2019-05-30T13:17:37.314Z,12.07
2019-05-30T13:20:10.336Z,10.00
2019-05-30T13:22:39.226Z,11.10
2019-05-30T13:25:09.960Z,11.18
2019-05-30T13:27:38.717Z,11.68
2019-05-30T13:30:11.716Z,12.50
2019-05-30T13:32:41.406Z,13.55
2019-05-30T13:35:10.257Z,13.40
2019-05-30T13:37:38.957Z,12.63
2019-05-30T13:40:24.375Z,12.10
2019-05-30T13:42:40.864Z,11.53
2019-05-30T13:45:11.048Z,14.10
2019-05-30T13:47:39.900Z,12.10
2019-05-30T13:50:13.529Z,10.95
2019-05-30T13:52:40.587Z,13.05
2019-05-30T13:55:10.263Z,12.68
2019-05-30T13:57:39.052Z,12.20
2019-05-30T14:00:10.457Z,12.55
2019-05-30T14:02:39.441Z,12.95
2019-05-30T14:05:10.520Z,10.68
2019-05-30T14:07:39.521Z,12.28
2019-05-30T14:10:09.164Z,11.45
2019-05-30T14:12:38.156Z,11.78
2019-05-30T14:15:10.453Z,13.30
2019-05-30T14:17:39.583Z,12.73
2019-05-30T14:20:09.112Z,15.20
2019-05-30T14:22:39.113Z,11.90
2019-05-30T14:25:09.690Z,12.23
2019-05-30T14:27:39.040Z,12.70
2019-05-30T14:30:09.197Z,11.15
2019-05-30T14:32:37.905Z,11.95
2019-05-30T14:35:11.908Z,14.30
2019-05-30T14:37:40.787Z,13.35
2019-05-30T14:40:11.433Z,10.10
2019-05-30T14:42:40.283Z,11.10
2019-05-30T14:45:10.630Z,13.85
2019-05-30T14:47:39.439Z,10.53
2019-05-30T14:50:11.077Z,11.65
2019-05-30T14:52:39.976Z,13.13
2019-05-30T14:55:09.443Z,9.23
2019-05-30T14:57:38.113Z,11.63
2019-05-30T15:00:13.668Z,9.45
2019-05-30T15:02:43.051Z,10.03
2019-05-30T15:05:13.824Z,10.98
2019-05-30T15:07:43.090Z,11.50
2019-05-30T15:10:12.832Z,9.18
2019-05-30T15:12:41.696Z,12.63
2019-05-30T15:15:13.222Z,12.23
2019-05-30T15:17:41.958Z,10.25
2019-05-30T15:20:13.525Z,11.78
2019-05-30T15:22:42.414Z,11.68
2019-05-30T15:25:12.152Z,11.65
2019-05-30T15:27:40.955Z,10.98
2019-05-30T15:30:12.968Z,13.72
2019-05-30T15:32:41.646Z,11.20
2019-05-30T15:35:11.164Z,15.10
2019-05-30T15:37:41.078Z,11.35
2019-05-30T15:40:12.923Z,12.90
2019-05-30T15:42:41.798Z,11.25
2019-05-30T15:45:12.004Z,13.58
2019-05-30T15:47:40.996Z,10.90
2019-05-30T15:50:11.215Z,14.53
2019-05-30T15:52:40.620Z,11.43
2019-05-30T15:55:11.208Z,11.48
2019-05-30T15:57:40.202Z,12.40
2019-05-30T16:00:12.101Z,11.25
2019-05-30T16:02:41.342Z,10.30
2019-05-30T16:05:12.497Z,12.90
2019-05-30T16:07:41.512Z,12.68
2019-05-30T16:10:10.979Z,14.90
2019-05-30T16:12:40.038Z,12.30
2019-05-30T16:15:09.382Z,17.87
2019-05-30T16:17:38.144Z,14.63
2019-05-30T16:20:09.137Z,16.23
2019-05-30T16:22:37.748Z,16.07
2019-05-30T16:25:07.567Z,13.70
2019-05-30T16:27:36.242Z,20.57
2019-05-30T16:30:10.897Z,15.05
2019-05-30T16:32:39.843Z,16.12
2019-05-30T16:35:09.015Z,14.30
2019-05-30T16:37:37.789Z,13.03
2019-05-30T16:40:09.614Z,10.38
2019-05-30T16:42:38.365Z,11.18
2019-05-30T16:45:09.021Z,14.68
2019-05-30T16:47:37.983Z,18.45
2019-05-30T16:50:08.712Z,13.58
2019-05-30T16:52:37.476Z,18.60
2019-05-30T16:55:07.437Z,16.10
2019-05-30T16:57:36.144Z,13.78
2019-05-30T17:00:10.405Z,16.48
2019-05-30T17:02:39.171Z,13.48
2019-05-30T17:05:08.664Z,14.40
2019-05-30T17:07:37.861Z,12.90
2019-05-30T17:10:21.590Z,15.35
2019-05-30T17:12:38.041Z,13.38
2019-05-30T17:15:09.060Z,13.75
2019-05-30T17:17:37.836Z,16.45
2019-05-30T17:20:08.223Z,12.30
2019-05-30T17:22:37.070Z,13.70
2019-05-30T17:25:07.112Z,20.55
2019-05-30T17:27:35.941Z,13.60
2019-05-30T17:30:06.584Z,12.23
2019-05-30T17:32:35.200Z,14.50
2019-05-30T17:35:08.133Z,10.90
2019-05-30T17:37:36.879Z,16.00
2019-05-30T17:40:07.456Z,13.72
2019-05-30T17:42:36.505Z,11.97
2019-05-30T17:45:19.008Z,11.68
2019-05-30T17:47:58.125Z,18.57
2019-05-30T17:50:19.824Z,13.70
2019-05-30T17:52:48.562Z,10.95
2019-05-30T17:55:17.656Z,16.93
2019-05-30T17:57:46.275Z,12.65
2019-05-30T18:00:16.189Z,13.30
2019-05-30T18:02:44.866Z,17.62
2019-05-30T18:05:14.318Z,11.65
2019-05-30T18:07:42.947Z,13.78
2019-05-30T18:10:12.721Z,16.40
2019-05-30T18:12:42.498Z,12.95
2019-05-30T18:15:13.249Z,16.17
2019-05-30T18:17:41.981Z,13.95
2019-05-30T18:20:11.778Z,15.08
2019-05-30T18:22:40.547Z,12.85
2019-05-30T18:25:10.773Z,10.60
2019-05-30T18:27:39.638Z,9.48
2019-05-30T18:30:09.374Z,9.80
2019-05-30T18:32:38.147Z,7.05
2019-05-30T18:35:07.808Z,9.18
2019-05-30T18:37:37.457Z,8.45
2019-05-30T18:40:08.328Z,13.18
2019-05-30T18:42:37.698Z,6.60
2019-05-30T18:45:10.959Z,9.63
2019-05-30T18:47:39.595Z,7.87
2019-05-30T18:50:09.568Z,7.83
2019-05-30T18:52:38.197Z,10.30
2019-05-30T18:55:08.148Z,12.47
2019-05-30T18:57:37.317Z,10.50
2019-05-30T19:00:13.060Z,8.55
2019-05-30T19:02:41.082Z,15.43
2019-05-30T19:05:10.632Z,10.38
2019-05-30T19:07:39.313Z,7.28
2019-05-30T19:10:08.990Z,12.00
2019-05-30T19:12:37.790Z,11.70
2019-05-30T19:15:07.763Z,14.23
2019-05-30T19:17:37.475Z,12.07
2019-05-30T19:20:10.936Z,15.55
2019-05-30T19:22:41.540Z,11.03
2019-05-30T19:25:10.117Z,9.10
2019-05-30T19:27:38.780Z,11.85
2019-05-30T19:30:09.124Z,12.15
2019-05-30T19:32:37.758Z,12.50
2019-05-30T19:35:10.199Z,13.58
2019-05-30T19:37:38.905Z,10.60
2019-05-30T19:40:07.948Z,16.02
2019-05-30T19:42:37.723Z,13.20
2019-05-30T19:45:08.323Z,14.65
2019-05-30T19:47:37.012Z,13.10
2019-05-30T19:50:07.609Z,12.60
2019-05-30T19:52:36.909Z,12.03
2019-05-30T19:55:06.649Z,14.83
2019-05-30T19:57:35.649Z,15.48
2019-05-30T20:00:09.402Z,13.85
2019-05-30T20:02:38.427Z,16.70
2019-05-30T20:05:08.046Z,13.48
2019-05-30T20:07:36.958Z,12.60
2019-05-30T20:10:06.718Z,11.20
2019-05-30T20:12:35.479Z,10.60
2019-05-30T20:15:07.098Z,13.72
2019-05-30T20:17:35.762Z,12.53
2019-05-30T20:20:05.814Z,12.82
2019-05-30T20:22:34.487Z,10.90
2019-05-30T20:25:05.118Z,15.15
2019-05-30T20:27:34.638Z,13.35
2019-05-30T20:30:04.758Z,14.78
2019-05-30T20:32:34.456Z,12.55
2019-05-30T20:35:03.315Z,12.37
2019-05-30T20:37:32.065Z,12.93
2019-05-30T20:40:00.687Z,9.55
2019-05-30T20:42:29.363Z,10.48
2019-05-30T20:44:58.196Z,10.85
2019-05-30T20:47:26.808Z,10.85
2019-05-30T20:49:55.578Z,13.28
2019-05-30T20:52:24.284Z,11.43
2019-05-30T20:54:52.974Z,12.58
2019-05-30T20:57:21.890Z,11.95
2019-05-30T20:59:50.544Z,12.60
2019-05-30T21:02:19.233Z,14.93
2019-05-30T21:04:47.853Z,10.30
2019-05-30T21:07:17.624Z,12.05
2019-05-30T21:09:46.868Z,18.15
2019-05-30T21:12:16.966Z,12.73
2019-05-30T21:14:47.522Z,11.75
2019-05-30T21:17:17.176Z,11.45
2019-05-30T21:19:46.146Z,12.45
2019-05-30T21:22:15.002Z,11.12
2019-05-30T21:24:44.832Z,11.55
2019-05-30T21:27:13.471Z,14.15
2019-05-30T21:29:45.767Z,12.43
2019-05-30T21:32:14.583Z,12.25
2019-05-30T21:34:44.439Z,12.35
2019-05-30T21:37:13.789Z,10.35
2019-05-30T21:39:42.487Z,13.43
2019-05-30T21:42:11.147Z,8.20
2019-05-30T21:44:40.625Z,14.53
2019-05-30T21:47:09.418Z,11.85
2019-05-30T21:49:38.855Z,15.03
2019-05-30T21:52:09.617Z,10.88
2019-05-30T21:54:39.689Z,11.30
2019-05-30T21:57:08.518Z,16.42
2019-05-30T21:59:37.358Z,12.68
2019-05-30T22:02:06.114Z,11.80
2019-05-30T22:04:34.747Z,10.40
2019-05-30T22:07:03.430Z,10.18
2019-05-30T22:09:32.129Z,12.03
2019-05-30T22:12:00.886Z,10.30
2019-05-30T22:14:31.571Z,10.43
2019-05-30T22:17:00.268Z,11.83
2019-05-30T22:19:28.872Z,9.10
2019-05-30T22:21:57.580Z,10.70
2019-05-30T22:24:26.520Z,9.23
2019-05-30T22:26:55.249Z,10.82
2019-05-30T22:29:23.970Z,12.55
2019-05-30T22:31:53.525Z,9.65
2019-05-30T22:34:22.377Z,9.15
2019-05-30T22:39:33.605Z,10.38
2019-05-30T22:42:02.290Z,13.48
2019-05-30T22:44:30.935Z,10.18
2019-05-30T22:46:59.676Z,8.65
2019-05-30T22:49:28.388Z,10.72
2019-05-30T22:51:57.369Z,12.25
2019-05-30T22:54:26.198Z,8.60
2019-05-30T22:56:55.749Z,12.78
2019-05-30T22:59:24.498Z,15.98
2019-05-30T23:02:02.643Z,13.65
2019-05-30T23:04:31.271Z,10.20
2019-05-30T23:06:59.877Z,8.15
2019-05-30T23:09:28.535Z,11.70
2019-05-30T23:11:57.140Z,14.43
2019-05-30T23:14:25.792Z,11.80
2019-05-30T23:16:54.565Z,12.25
2019-05-30T23:19:23.236Z,11.73
2019-05-30T23:21:53.272Z,16.57
2019-05-30T23:24:22.157Z,15.60
2019-05-30T23:26:51.731Z,10.93
2019-05-30T23:29:20.453Z,13.58
2019-05-30T23:31:49.899Z,15.23
2019-05-30T23:34:18.801Z,14.40
2019-05-30T23:36:48.553Z,14.98
2019-05-30T23:39:17.342Z,13.68
2019-05-30T23:41:46.094Z,17.65
2019-05-30T23:44:14.860Z,17.30
2019-05-30T23:46:43.633Z,24.20
2019-05-30T23:49:12.269Z,17.25
2019-05-30T23:51:40.885Z,22.40
2019-05-30T23:54:09.549Z,29.70
2019-05-30T23:56:41.958Z,25.55
2019-05-30T23:59:08.529Z,24.70
